Autoridad de Aeronautica Civil de Panamá***
**


metar


PERSPECTIVA DE AERODROMOS: 24SEPT.

ESTACIONES DESCRIPCION
MPTO (M) 241400Z 07003KT 020V100 9999 SCT017CB SCT080 27/24 Q1013 NOSIG RMK CB DSNT SW=  
MPMG (M) 241400Z VRB02KT 9999 SCT017 BKN080 27/24 Q1012 NOSIG RMK PCPN SE-SW-W=  
MPPA (M) 241400Z 00000KT 7000 -RA FEW015CB BKN080 26/25 Q1012 RWY WET RMK CB S-SW=  
MPDA (M) 241400Z 08003KT 9999 FEW006 25/24 Q1011 RMK ST N-NE=  
MPSM (M) 241400Z 00000KT 9999 FEW020 SCT080 25/24 Q1012 RERA RWY DAMP RMK PCPN DSNT E-SE  
MPBO (M) 241400Z 00000KT 9999 SCT018 SCT090 Q1015  
MPCH (M) 241200Z 22004KT 9999 FEW020 BKN080 Q1013  
MPEJ (M) 241400Z 19004KT 9000 VCSH SCT015TCU SCT100 27/27 Q1014 RWY WATER PATCHES TCU S-W/N PCPN W=  
MPCE (M) 241400Z 00000KT 9999 SCT015TCU BKN080 25/// Q1012 RMK TCU NW-N DSNT PCPN NE-E=  
MPPN (M) 241300Z 00000KT 9999 SCT015 BKN080 25///=  
MPSA (M) 241400Z 00000KT 9000 SCT008 BKN070 25/23 Q1012 RMK ST ALQDS=  


 

 

  CLIMATICA

MPTO

23 DE SEPTIEMBRE 2021

 

PCPN (mm)

T° MAX

T° MIN

VIENTO MAX (KT)

HORA

VIENTO PREDOM (KT)

15.5

29.0

22.7

36010KT

1924Z

VRB 02KT

CLIMÁTICAS

MPMG

23 SEPTIEMBRE  2021

PCPN (mm)

T° MAX

T° MIN

VIENTO MAX (KT)

HORA

VIENTO PREDOM (KT)

0.0

29.9

23.4

30009KT

1922Z

NW

 



Contador: 58487